Time;durP1;ratioP1;P1;durP2;ratioP2;P2;SDS_P1;SDS_P2;PMS_P1;PMS_P2;Temp;Humidity;BMP_temperature;BMP_pressure;BME280_temperature;BME280_humidity;BME280_pressure;Samples;Min_cycle;Max_cycle;Signal;HPM_P1;HPM_P2
2022/12/03 00:01:44;;;;;;;53.35;30.55;;;2.90;82.40;;;;;;4970023;28;20053;-74
2022/12/03 00:04:10;;;;;;;56.05;32.20;;;2.90;82.20;;;;;;4961213;28;20616;-73
2022/12/03 00:06:36;;;;;;;54.17;32.28;;;2.90;82.00;;;;;;4967722;28;20034;-75
2022/12/03 00:09:02;;;;;;;55.90;32.38;;;2.90;82.30;;;;;;4957505;28;20252;-72
2022/12/03 00:11:28;;;;;;;55.78;32.97;;;2.90;82.70;;;;;;4962798;28;20038;-72
2022/12/03 00:13:53;;;;;;;58.55;32.42;;;2.90;82.60;;;;;;4962720;28;20541;-73
2022/12/03 00:16:19;;;;;;;53.88;30.25;;;2.80;82.60;;;;;;4965683;28;20224;-73
2022/12/03 00:18:45;;;;;;;56.85;32.80;;;2.80;82.40;;;;;;4970486;28;20169;-75
2022/12/03 00:21:10;;;;;;;52.40;30.67;;;2.80;82.50;;;;;;4966140;28;20153;-73
2022/12/03 00:23:36;;;;;;;48.58;28.13;;;2.80;82.50;;;;;;4965502;28;20365;-73
2022/12/03 00:26:01;;;;;;;52.10;30.90;;;2.70;82.30;;;;;;4966571;28;20134;-73
2022/12/03 00:28:27;;;;;;;50.58;29.75;;;2.80;82.20;;;;;;4962688;28;20038;-73
2022/12/03 00:30:53;;;;;;;48.95;29.08;;;2.80;82.10;;;;;;4962399;28;20046;-74
2022/12/03 00:33:19;;;;;;;48.72;28.40;;;2.70;82.10;;;;;;4962941;28;20034;-73
2022/12/03 00:35:45;;;;;;;48.30;29.05;;;2.70;82.30;;;;;;4962707;28;20558;-74
2022/12/03 00:38:11;;;;;;;46.25;27.67;;;2.80;82.50;;;;;;4964800;28;20424;-76
2022/12/03 00:40:37;;;;;;;46.03;27.73;;;2.80;82.50;;;;;;4960706;28;20224;-74
2022/12/03 00:43:02;;;;;;;48.42;27.13;;;2.80;82.00;;;;;;4957720;28;21309;-73
2022/12/03 00:45:28;;;;;;;47.60;28.10;;;2.70;82.30;;;;;;4966711;28;20042;-75
2022/12/03 00:47:54;;;;;;;45.35;27.95;;;2.70;82.10;;;;;;4962208;28;20035;-75
2022/12/03 00:50:20;;;;;;;45.05;27.60;;;2.70;82.30;;;;;;4962907;28;20550;-75
2022/12/03 00:52:45;;;;;;;48.38;29.15;;;2.70;82.50;;;;;;4967276;28;20141;-74
2022/12/03 00:55:11;;;;;;;43.33;26.48;;;2.70;82.30;;;;;;4970598;28;20081;-74
2022/12/03 00:57:37;;;;;;;46.47;27.10;;;2.70;82.10;;;;;;4964482;28;20042;-74
2022/12/03 01:00:04;;;;;;;47.45;29.38;;;2.80;82.40;;;;;;4962632;28;20031;-75
2022/12/03 01:02:30;;;;;;;44.90;27.05;;;2.80;82.20;;;;;;4968928;28;20033;-74
2022/12/03 01:04:56;;;;;;;42.75;25.92;;;2.70;82.50;;;;;;4971689;28;20407;-74
2022/12/03 01:07:21;;;;;;;42.95;25.48;;;2.70;82.30;;;;;;4967224;28;20031;-75
2022/12/03 01:09:47;;;;;;;44.08;26.73;;;2.70;82.20;;;;;;4970926;28;20046;-76
2022/12/03 01:12:13;;;;;;;46.05;28.35;;;2.70;82.40;;;;;;4962970;28;20121;-74
2022/12/03 01:14:39;;;;;;;50.25;27.98;;;2.70;82.50;;;;;;4968964;28;20497;-75
2022/12/03 01:17:05;;;;;;;43.90;26.90;;;2.70;82.80;;;;;;4965807;28;20022;-76
2022/12/03 01:19:33;;;;;;;42.35;25.60;;;2.70;82.70;;;;;;4966213;28;20039;-75
2022/12/03 01:22:00;;;;;;;47.63;27.35;;;2.60;82.80;;;;;;4961155;28;20046;-75
2022/12/03 01:24:25;;;;;;;45.97;27.33;;;2.70;82.80;;;;;;4970645;28;20023;-74
2022/12/03 01:26:51;;;;;;;42.22;26.95;;;2.70;82.80;;;;;;4962132;28;20109;-74
2022/12/03 01:29:17;;;;;;;44.38;26.98;;;2.70;82.60;;;;;;4980676;28;20482;-76
2022/12/03 01:34:26;;;;;;;42.45;26.50;;;2.70;82.50;;;;;;4961081;28;20053;-74
2022/12/03 01:36:52;;;;;;;42.33;26.05;;;2.70;82.40;;;;;;4964565;28;20490;-75
2022/12/03 01:39:18;;;;;;;41.85;27.00;;;2.70;82.40;;;;;;4966188;28;20030;-76
2022/12/03 01:41:45;;;;;;;43.45;26.50;;;2.80;82.20;;;;;;4971028;28;20031;-76
2022/12/03 01:44:20;;;;;;;41.58;24.95;;;2.80;82.30;;;;;;4965253;28;20394;-74
2022/12/03 01:46:47;;;;;;;42.50;26.88;;;2.80;82.60;;;;;;4974621;28;20479;-75
2022/12/03 01:49:17;;;;;;;44.17;26.70;;;2.80;82.70;;;;;;4965687;28;20661;-74
2022/12/03 01:51:44;;;;;;;45.78;28.25;;;2.70;82.20;;;;;;4963638;28;20027;-74
2022/12/03 01:54:17;;;;;;;45.15;25.77;;;2.70;82.20;;;;;;4970585;28;20403;-73
2022/12/03 01:56:43;;;;;;;42.78;27.05;;;2.70;82.20;;;;;;4960264;28;20551;-75
2022/12/03 01:59:16;;;;;;;42.22;26.48;;;2.70;82.30;;;;;;4967514;28;20558;-73
2022/12/03 02:01:43;;;;;;;40.38;24.75;;;2.70;82.30;;;;;;4961514;28;20043;-74
2022/12/03 02:04:24;;;;;;;41.55;26.17;;;2.70;82.20;;;;;;4973620;28;20076;-75
2022/12/03 02:06:49;;;;;;;38.05;23.88;;;2.70;82.40;;;;;;4969079;28;20070;-75
2022/12/03 02:09:15;;;;;;;43.40;26.58;;;2.70;82.40;;;;;;4966493;28;20351;-73
2022/12/03 02:11:47;;;;;;;37.75;24.23;;;2.70;82.40;;;;;;4969024;28;20030;-73
2022/12/03 02:14:17;;;;;;;38.35;25.35;;;2.70;82.30;;;;;;4964265;28;20035;-74
2022/12/03 02:16:43;;;;;;;39.65;25.77;;;2.70;82.50;;;;;;4970511;28;20038;-75
2022/12/03 02:19:30;;;;;;;38.50;25.45;;;2.70;82.40;;;;;;4963077;28;20388;-75
2022/12/03 02:22:32;;;;;;;39.10;25.13;;;2.70;82.50;;;;;;4966333;28;20043;-73
2022/12/03 02:24:58;;;;;;;42.78;27.33;;;2.70;82.20;;;;;;4964561;28;20054;-72
2022/12/03 02:27:26;;;;;;;39.40;25.48;;;2.60;82.50;;;;;;4963759;28;20053;-73
2022/12/03 02:29:51;;;;;;;41.13;27.20;;;2.70;82.50;;;;;;4968881;28;20114;-75
2022/12/03 02:32:22;;;;;;;40.28;26.83;;;2.70;82.30;;;;;;4965590;28;20058;-74
2022/12/03 02:34:48;;;;;;;41.85;27.85;;;2.60;82.40;;;;;;4967737;28;20166;-74
2022/12/03 02:37:35;;;;;;;40.05;26.05;;;2.70;82.50;;;;;;4965023;28;20102;-75
2022/12/03 02:40:08;;;;;;;45.67;28.08;;;2.60;82.40;;;;;;4962611;28;20112;-73
2022/12/03 02:42:33;;;;;;;39.67;24.90;;;2.60;82.30;;;;;;4962921;28;20041;-75
2022/12/03 02:45:02;;;;;;;38.55;25.27;;;2.60;81.40;;;;;;4971275;28;20359;-75
2022/12/03 02:47:30;;;;;;;42.08;25.60;;;2.70;81.70;;;;;;4969321;28;20056;-74
2022/12/03 02:49:56;;;;;;;42.88;26.63;;;2.70;81.90;;;;;;4965792;28;20039;-75
2022/12/03 02:52:22;;;;;;;40.85;26.33;;;2.70;81.90;;;;;;4964872;28;20048;-78
2022/12/03 02:54:48;;;;;;;42.60;27.70;;;2.70;82.20;;;;;;4965479;28;20353;-73
2022/12/03 02:57:15;;;;;;;40.97;27.98;;;2.60;82.10;;;;;;4974084;28;20027;-74
2022/12/03 02:59:44;;;;;;;39.97;25.85;;;2.70;81.90;;;;;;4961432;28;20042;-73
2022/12/03 03:02:10;;;;;;;42.33;25.75;;;2.60;81.90;;;;;;4968089;28;20720;-76
2022/12/03 03:04:37;;;;;;;42.53;27.65;;;2.60;82.00;;;;;;4971683;28;20042;-74
2022/12/03 03:07:03;;;;;;;42.10;28.27;;;2.70;82.20;;;;;;4968031;28;20027;-74
2022/12/03 03:09:29;;;;;;;43.45;27.90;;;2.70;82.00;;;;;;4968696;28;20283;-74
2022/12/03 03:11:54;;;;;;;40.97;26.75;;;2.70;82.00;;;;;;4968320;28;20074;-74
2022/12/03 03:14:20;;;;;;;42.30;27.80;;;2.70;82.10;;;;;;4971811;28;20047;-73
2022/12/03 03:16:54;;;;;;;41.13;26.67;;;2.70;82.10;;;;;;4965805;28;20482;-75
2022/12/03 03:19:27;;;;;;;41.47;26.75;;;2.60;82.20;;;;;;4959132;28;20121;-73
2022/12/03 03:21:53;;;;;;;43.00;27.25;;;2.60;82.10;;;;;;4961528;28;20051;-75
2022/12/03 03:24:20;;;;;;;40.63;27.67;;;2.70;82.10;;;;;;4961611;28;20432;-73
2022/12/03 03:26:46;;;;;;;40.65;25.95;;;2.70;81.90;;;;;;4970192;28;20031;-74
2022/12/03 03:29:11;;;;;;;41.55;27.05;;;2.60;82.10;;;;;;4964271;28;20555;-73
2022/12/03 03:31:39;;;;;;;39.15;25.98;;;2.60;82.20;;;;;;4973290;28;20030;-73
2022/12/03 03:34:04;;;;;;;41.67;26.95;;;2.60;82.30;;;;;;4959606;28;20038;-73
2022/12/03 03:36:31;;;;;;;42.97;28.95;;;2.70;82.30;;;;;;4971010;28;20422;-73
2022/12/03 03:38:57;;;;;;;42.40;28.48;;;2.60;82.30;;;;;;4965887;28;20023;-75
2022/12/03 03:41:25;;;;;;;41.13;27.55;;;2.60;82.50;;;;;;4972296;28;20038;-75
2022/12/03 03:43:51;;;;;;;41.58;26.95;;;2.60;82.50;;;;;;4967627;28;20114;-74
2022/12/03 03:46:18;;;;;;;40.53;26.00;;;2.60;82.50;;;;;;4968674;28;20114;-77
2022/12/03 03:48:43;;;;;;;41.42;27.23;;;2.60;82.10;;;;;;4961675;28;20043;-74
2022/12/03 03:51:11;;;;;;;43.13;27.42;;;2.60;82.20;;;;;;4964969;28;20196;-73
2022/12/03 03:53:43;;;;;;;41.75;28.10;;;2.60;82.40;;;;;;4962632;28;20034;-74
2022/12/03 03:56:10;;;;;;;43.65;27.13;;;2.60;82.60;;;;;;4972243;28;20058;-74
2022/12/03 03:58:37;;;;;;;42.83;27.90;;;2.60;82.60;;;;;;4963244;28;20035;-74
2022/12/03 04:01:02;;;;;;;42.33;26.50;;;2.60;82.60;;;;;;4965645;28;20378;-75
2022/12/03 04:03:28;;;;;;;42.10;26.92;;;2.60;82.40;;;;;;4968003;28;20031;-74
2022/12/03 04:05:54;;;;;;;43.10;28.05;;;2.60;82.40;;;;;;4974730;28;20035;-76
2022/12/03 04:08:19;;;;;;;42.47;28.27;;;2.60;82.30;;;;;;4968573;28;20093;-75
2022/12/03 04:13:29;;;;;;;42.15;27.98;;;2.60;82.60;;;;;;4963789;28;20037;-73
2022/12/03 04:15:55;;;;;;;43.85;28.73;;;2.60;82.80;;;;;;4965360;28;20030;-73
2022/12/03 04:23:49;;;;;;;44.60;28.80;;;2.60;82.80;;;;;;4959372;28;20042;-73
2022/12/03 04:28:59;;;;;;;45.20;29.50;;;2.60;83.00;;;;;;4971586;28;20081;-75
2022/12/03 04:36:54;;;;;;;;;;;2.60;83.00;;;;;;4965464;28;20092;-74
2022/12/03 04:39:20;;;;;;;45.38;29.10;;;2.60;83.00;;;;;;4961450;28;19921;-74
2022/12/03 04:41:45;;;;;;;44.05;28.75;;;2.60;82.70;;;;;;4960799;28;20061;-73
2022/12/03 04:46:55;;;;;;;45.45;27.80;;;2.60;83.00;;;;;;4961427;28;20494;-74
2022/12/03 04:49:21;;;;;;;48.90;28.88;;;2.60;82.90;;;;;;4974248;28;20161;-74
2022/12/03 04:51:47;;;;;;;45.13;29.67;;;2.60;82.90;;;;;;4957535;28;20038;-74
2022/12/03 04:54:13;;;;;;;47.45;29.25;;;2.60;82.70;;;;;;4962558;28;20462;-75
2022/12/03 04:56:38;;;;;;;46.55;29.02;;;2.60;83.10;;;;;;4968315;28;20449;-74
2022/12/03 04:59:04;;;;;;;46.00;28.25;;;2.60;83.20;;;;;;4962986;28;20071;-75
2022/12/03 05:01:29;;;;;;;49.90;29.95;;;2.60;83.30;;;;;;4968838;28;20446;-74
2022/12/03 05:03:55;;;;;;;48.03;29.83;;;2.60;83.20;;;;;;4966166;28;20039;-74
2022/12/03 05:06:21;;;;;;;46.90;30.35;;;2.60;83.10;;;;;;4966978;28;20503;-75
2022/12/03 05:08:47;;;;;;;47.97;30.45;;;2.60;83.00;;;;;;4961196;28;20147;-74
2022/12/03 05:11:13;;;;;;;46.55;30.20;;;2.60;82.90;;;;;;4960055;28;20708;-74
2022/12/03 05:13:38;;;;;;;45.90;29.75;;;2.60;83.00;;;;;;4961407;28;20391;-76
2022/12/03 05:16:04;;;;;;;43.50;28.58;;;2.60;83.20;;;;;;4962125;28;20121;-74
2022/12/03 05:18:29;;;;;;;47.42;30.30;;;2.70;83.30;;;;;;4967691;28;20027;-75
2022/12/03 05:20:55;;;;;;;48.38;30.15;;;2.70;83.20;;;;;;4964069;28;20378;-73
2022/12/03 05:23:21;;;;;;;49.40;29.95;;;2.70;83.20;;;;;;4964870;28;20100;-75
2022/12/03 05:25:46;;;;;;;48.30;31.30;;;2.60;83.20;;;;;;4970255;28;20499;-74
2022/12/03 05:28:12;;;;;;;47.92;31.92;;;2.60;83.10;;;;;;4981154;28;20484;-76
2022/12/03 05:30:37;;;;;;;44.42;28.65;;;2.60;83.20;;;;;;4986280;28;20655;-78
2022/12/03 05:33:03;;;;;;;46.55;29.52;;;2.60;83.20;;;;;;4975146;28;20058;-73
2022/12/03 05:35:29;;;;;;;45.78;28.15;;;2.70;83.10;;;;;;4958905;28;20383;-74
2022/12/03 05:37:54;;;;;;;44.10;28.27;;;2.60;82.70;;;;;;4966966;28;20398;-73
2022/12/03 05:40:20;;;;;;;46.83;28.98;;;2.60;82.70;;;;;;4965736;28;20116;-74
2022/12/03 05:43:00;;;;;;;41.70;27.00;;;2.60;82.80;;;;;;4966666;28;20142;-74
2022/12/03 05:45:27;;;;;;;42.53;26.27;;;2.60;82.90;;;;;;4966062;28;21144;-74
2022/12/03 05:47:54;;;;;;;45.85;27.85;;;2.70;82.90;;;;;;4964497;28;20289;-75
2022/12/03 05:50:21;;;;;;;43.17;26.25;;;2.60;82.70;;;;;;4963973;28;20082;-74
2022/12/03 05:52:47;;;;;;;42.92;26.75;;;2.60;82.30;;;;;;4968204;28;20050;-75
2022/12/03 05:55:13;;;;;;;46.35;27.88;;;2.60;82.50;;;;;;4967475;28;20401;-74
2022/12/03 05:57:39;;;;;;;46.75;28.60;;;2.60;82.70;;;;;;4968342;28;20038;-75
2022/12/03 06:00:08;;;;;;;41.30;27.55;;;2.60;82.40;;;;;;4970106;28;20859;-74
2022/12/03 06:02:33;;;;;;;41.97;27.67;;;2.60;82.20;;;;;;4964130;28;20762;-74
2022/12/03 06:04:59;;;;;;;42.95;27.13;;;2.60;82.50;;;;;;4963621;28;20035;-73
2022/12/03 06:07:25;;;;;;;43.35;27.52;;;2.60;82.40;;;;;;4965515;28;20697;-73
2022/12/03 06:09:50;;;;;;;41.90;27.73;;;2.60;82.30;;;;;;4965321;28;20067;-74
2022/12/03 06:12:16;;;;;;;47.83;30.70;;;2.60;82.60;;;;;;4969165;28;20038;-73
2022/12/03 06:14:42;;;;;;;47.47;30.15;;;2.60;82.70;;;;;;4966942;28;20039;-75
2022/12/03 06:17:07;;;;;;;46.08;30.75;;;2.60;82.70;;;;;;4971999;28;20062;-74
2022/12/03 06:19:33;;;;;;;48.30;30.95;;;2.60;82.80;;;;;;4966020;28;20336;-74
2022/12/03 06:21:59;;;;;;;50.13;31.75;;;2.60;82.60;;;;;;4970417;28;20039;-74
2022/12/03 06:24:24;;;;;;;49.28;31.10;;;2.60;82.70;;;;;;4973452;28;20466;-76
2022/12/03 06:26:50;;;;;;;50.63;31.70;;;2.60;82.90;;;;;;4970349;28;20035;-76
2022/12/03 06:29:16;;;;;;;47.70;29.52;;;2.60;82.90;;;;;;4966495;28;20468;-74
2022/12/03 06:31:41;;;;;;;50.95;31.85;;;2.60;83.00;;;;;;4971314;28;20452;-74
2022/12/03 06:34:07;;;;;;;49.58;30.13;;;2.60;83.00;;;;;;4971860;28;20043;-75
2022/12/03 06:36:33;;;;;;;46.33;29.77;;;2.60;83.10;;;;;;4970703;28;20229;-75
2022/12/03 06:38:58;;;;;;;48.80;30.92;;;2.60;83.10;;;;;;4965420;28;20055;-73
2022/12/03 06:41:24;;;;;;;49.92;31.90;;;2.60;83.20;;;;;;4966797;28;20037;-73
2022/12/03 06:43:49;;;;;;;44.35;29.00;;;2.60;83.20;;;;;;4965781;28;20501;-74
2022/12/03 06:46:15;;;;;;;50.60;30.92;;;2.60;83.30;;;;;;4964033;28;20026;-74
2022/12/03 06:48:41;;;;;;;47.40;31.10;;;2.60;83.10;;;;;;4961340;28;20444;-74
2022/12/03 06:51:06;;;;;;;48.90;31.45;;;2.60;83.30;;;;;;4966997;28;20043;-74
2022/12/03 06:53:32;;;;;;;49.88;31.45;;;2.60;83.30;;;;;;4962985;28;20506;-73
2022/12/03 06:55:57;;;;;;;50.10;31.75;;;2.60;83.60;;;;;;4963482;28;20042;-74
2022/12/03 06:58:23;;;;;;;49.53;30.30;;;2.50;83.90;;;;;;4967309;28;20034;-73
2022/12/03 07:00:48;;;;;;;50.15;31.92;;;2.50;84.10;;;;;;4967574;28;20047;-75
2022/12/03 07:03:14;;;;;;;52.20;32.65;;;2.60;84.10;;;;;;4968438;28;20037;-73
2022/12/03 07:05:40;;;;;;;52.13;33.40;;;2.60;84.00;;;;;;4968148;28;20030;-73
2022/12/03 07:08:05;;;;;;;51.15;31.55;;;2.50;84.30;;;;;;4964447;28;20039;-75
2022/12/03 07:10:31;;;;;;;49.53;31.05;;;2.60;84.40;;;;;;4963096;28;20039;-74
2022/12/03 07:12:56;;;;;;;57.50;33.33;;;2.60;84.70;;;;;;4969590;28;20035;-72
2022/12/03 07:15:22;;;;;;;54.78;33.28;;;2.60;84.70;;;;;;4964816;28;20113;-74
2022/12/03 07:17:48;;;;;;;57.03;33.88;;;2.60;84.70;;;;;;4963384;28;20526;-73
2022/12/03 07:20:15;;;;;;;56.65;34.05;;;2.50;85.00;;;;;;4965909;28;20031;-74
2022/12/03 07:22:40;;;;;;;57.58;33.83;;;2.50;85.00;;;;;;4962572;28;20030;-74
2022/12/03 07:25:06;;;;;;;59.90;34.60;;;2.60;85.00;;;;;;4961693;28;20026;-73
2022/12/03 07:27:32;;;;;;;60.58;33.85;;;2.60;85.00;;;;;;4978358;28;20031;-74
2022/12/03 07:29:58;;;;;;;63.97;35.13;;;2.60;85.10;;;;;;4965505;28;20051;-78
2022/12/03 07:32:23;;;;;;;59.13;34.20;;;2.60;85.00;;;;;;4964328;28;20035;-76
2022/12/03 07:34:49;;;;;;;58.45;33.28;;;2.60;85.10;;;;;;4963087;28;20370;-78
2022/12/03 07:37:14;;;;;;;60.97;36.50;;;2.60;85.20;;;;;;4962494;28;20026;-78
2022/12/03 07:39:40;;;;;;;60.33;35.42;;;2.60;85.30;;;;;;4966895;28;20056;-78
2022/12/03 07:42:08;;;;;;;58.50;34.55;;;2.60;85.30;;;;;;4962766;28;20043;-78
2022/12/03 07:44:33;;;;;;;60.33;33.15;;;2.70;85.20;;;;;;4965119;28;20392;-78
2022/12/03 07:46:59;;;;;;;59.78;35.55;;;2.60;85.30;;;;;;4957205;28;20047;-77
2022/12/03 07:49:25;;;;;;;65.97;37.50;;;2.60;85.30;;;;;;4960212;28;20043;-79
2022/12/03 07:51:55;;;;;;;59.65;35.25;;;2.60;85.30;;;;;;4961834;28;20050;-75
2022/12/03 07:54:24;;;;;;;59.78;33.10;;;2.70;85.40;;;;;;4976769;28;20051;-78
2022/12/03 07:56:51;;;;;;;63.60;37.13;;;2.70;85.40;;;;;;4964304;28;20047;-77
2022/12/03 07:59:17;;;;;;;60.78;36.10;;;2.70;85.20;;;;;;4962307;28;20027;-78
2022/12/03 08:01:42;;;;;;;59.20;34.80;;;2.70;85.30;;;;;;4972625;28;20038;-79
2022/12/03 08:04:08;;;;;;;60.58;36.47;;;2.70;85.50;;;;;;4966243;28;20253;-80
2022/12/03 08:06:34;;;;;;;60.83;35.88;;;2.70;85.50;;;;;;4962639;28;20153;-77
2022/12/03 08:09:00;;;;;;;60.45;35.05;;;2.70;85.50;;;;;;4967153;28;20250;-77
2022/12/03 08:11:28;;;;;;;61.13;35.55;;;2.60;85.50;;;;;;4958531;28;20043;-80
2022/12/03 08:13:55;;;;;;;62.53;35.88;;;2.70;85.50;;;;;;4957851;28;20129;-76
2022/12/03 08:16:21;;;;;;;59.05;35.28;;;2.70;85.40;;;;;;4955881;28;20427;-80
2022/12/03 08:18:48;;;;;;;63.88;36.20;;;2.80;85.40;;;;;;4956526;28;20514;-80
2022/12/03 08:21:16;;;;;;;61.03;36.08;;;2.70;85.20;;;;;;4960722;28;20434;-79
2022/12/03 08:23:42;;;;;;;60.03;34.95;;;2.70;85.20;;;;;;4954420;28;20093;-79
2022/12/03 08:26:27;;;;;;;59.58;34.75;;;2.80;85.40;;;;;;4957093;28;20030;-78
2022/12/03 08:28:52;;;;;;;61.25;35.95;;;2.80;85.40;;;;;;4956607;28;20558;-78
2022/12/03 08:31:22;;;;;;;59.95;34.47;;;2.80;85.40;;;;;;4957112;28;20035;-78
2022/12/03 08:33:50;;;;;;;61.85;34.72;;;2.80;85.40;;;;;;4954548;28;20402;-78
2022/12/03 08:36:22;;;;;;;59.38;35.58;;;2.80;85.20;;;;;;4957249;28;20136;-79
2022/12/03 08:38:54;;;;;;;63.65;37.70;;;2.80;85.30;;;;;;4958078;28;20749;-77
2022/12/03 08:44:17;;;;;;;62.58;35.88;;;2.80;85.50;;;;;;4964263;28;20750;-79
2022/12/03 08:46:43;;;;;;;62.58;36.35;;;2.80;85.50;;;;;;4961240;28;20357;-77
2022/12/03 08:49:08;;;;;;;63.13;36.67;;;2.80;85.50;;;;;;4965382;28;20065;-78
2022/12/03 08:51:34;;;;;;;61.22;35.42;;;2.90;85.50;;;;;;4967374;28;20059;-77
2022/12/03 08:54:12;;;;;;;58.55;36.67;;;2.90;85.20;;;;;;4963847;28;20542;-77
2022/12/03 08:56:38;;;;;;;62.38;37.65;;;2.90;85.30;;;;;;4951904;28;20034;-77
2022/12/03 08:59:28;;;;;;;62.45;34.55;;;3.00;85.20;;;;;;4956973;28;20036;-80
2022/12/03 09:01:54;;;;;;;60.13;35.33;;;3.10;85.10;;;;;;4975304;28;20219;-77
2022/12/03 09:04:25;;;;;;;55.28;34.75;;;3.00;84.50;;;;;;4970277;28;20199;-79
2022/12/03 09:06:51;;;;;;;59.00;35.85;;;3.00;84.80;;;;;;4978884;28;20593;-77
2022/12/03 09:09:17;;;;;;;60.92;36.13;;;3.10;84.70;;;;;;4969526;28;20078;-77
2022/12/03 09:11:43;;;;;;;62.22;35.65;;;3.10;84.80;;;;;;4970214;28;20054;-79
2022/12/03 09:14:10;;;;;;;58.15;35.75;;;3.10;84.40;;;;;;4966804;28;20045;-79
2022/12/03 09:16:35;;;;;;;58.78;34.20;;;3.10;84.20;;;;;;4968264;28;20039;-78
2022/12/03 09:19:01;;;;;;;59.50;35.10;;;3.10;84.00;;;;;;4964940;28;20037;-77
2022/12/03 09:21:27;;;;;;;63.05;36.72;;;3.20;84.20;;;;;;4969681;28;20047;-76
2022/12/03 09:23:53;;;;;;;59.88;34.97;;;3.20;84.00;;;;;;4963301;28;20388;-76
2022/12/03 09:26:18;;;;;;;57.78;35.25;;;3.30;83.70;;;;;;4965068;28;20625;-80
2022/12/03 09:28:47;;;;;;;58.90;34.13;;;3.40;83.80;;;;;;4964541;28;20043;-76
2022/12/03 09:31:13;;;;;;;55.65;34.85;;;3.40;83.60;;;;;;4966615;28;20046;-76
2022/12/03 09:33:39;;;;;;;53.97;32.88;;;3.40;83.40;;;;;;4967089;28;20074;-79
2022/12/03 09:36:05;;;;;;;55.90;34.78;;;3.40;83.30;;;;;;4967650;28;20138;-79
2022/12/03 09:38:31;;;;;;;58.28;34.30;;;3.50;83.20;;;;;;4961121;28;20506;-79
2022/12/03 09:40:57;;;;;;;54.40;34.17;;;3.50;83.00;;;;;;4964942;28;20062;-78
2022/12/03 09:43:23;;;;;;;53.97;33.03;;;3.60;82.90;;;;;;4964277;28;20328;-79
2022/12/03 09:45:49;;;;;;;54.55;32.58;;;3.50;82.70;;;;;;4970604;28;20041;-79
2022/12/03 09:48:19;;;;;;;52.13;32.47;;;3.50;82.80;;;;;;4961245;28;20042;-79
2022/12/03 09:50:45;;;;;;;52.53;33.38;;;3.50;82.90;;;;;;4967687;28;20100;-80
2022/12/03 09:53:17;;;;;;;59.92;34.92;;;3.50;83.00;;;;;;4963112;28;20093;-80
2022/12/03 09:55:45;;;;;;;55.17;33.85;;;3.50;82.80;;;;;;4959235;28;20028;-80
2022/12/03 09:58:13;;;;;;;57.72;34.83;;;3.50;82.80;;;;;;4943117;28;20391;-80
2022/12/03 10:00:40;;;;;;;55.08;34.90;;;3.50;82.60;;;;;;4964097;28;20046;-79
2022/12/03 10:03:06;;;;;;;55.38;33.92;;;3.40;82.60;;;;;;4963122;28;20086;-78
2022/12/03 10:05:33;;;;;;;54.60;34.58;;;3.40;82.60;;;;;;4968983;28;20054;-79
2022/12/03 10:08:06;;;;;;;55.03;35.25;;;3.30;83.20;;;;;;4956281;28;20238;-78
2022/12/03 10:10:33;;;;;;;55.53;34.38;;;3.40;83.30;;;;;;4960651;28;20069;-79
2022/12/03 10:12:59;;;;;;;58.72;35.67;;;3.30;83.30;;;;;;4968101;28;20046;-80
2022/12/03 10:15:25;;;;;;;54.55;33.60;;;3.40;83.30;;;;;;4964840;28;20047;-76
2022/12/03 10:17:53;;;;;;;50.90;31.98;;;3.50;83.20;;;;;;4959794;28;20031;-79
2022/12/03 10:20:22;;;;;;;54.85;34.33;;;3.60;82.90;;;;;;4963757;28;20026;-80
2022/12/03 10:22:48;;;;;;;54.28;34.00;;;3.60;82.90;;;;;;4964015;28;20113;-80
2022/12/03 10:25:19;;;;;;;53.85;32.47;;;3.60;82.40;;;;;;4962791;28;20422;-77
2022/12/03 10:27:58;;;;;;;57.22;33.78;;;3.60;82.60;;;;;;4961443;28;20062;-80
2022/12/03 10:30:27;;;;;;;55.38;32.95;;;3.60;82.00;;;;;;4963248;28;20107;-76
2022/12/03 10:32:54;;;;;;;54.15;33.38;;;3.70;82.00;;;;;;4982945;28;20049;-75
2022/12/03 10:35:21;;;;;;;53.85;33.67;;;3.60;81.80;;;;;;4986352;28;20038;-75
2022/12/03 10:38:06;;;;;;;54.22;33.13;;;3.70;82.10;;;;;;4978540;28;20042;-80
2022/12/03 10:40:37;;;;;;;55.15;32.80;;;3.80;81.90;;;;;;4971549;28;20096;-79
2022/12/03 10:43:18;;;;;;;50.88;31.27;;;3.80;81.10;;;;;;4964268;28;20023;-77
2022/12/03 10:46:08;;;;;;;56.05;32.63;;;3.80;81.60;;;;;;4993648;28;20050;-75
2022/12/03 10:48:34;;;;;;;52.55;31.60;;;3.80;81.60;;;;;;4970493;28;20073;-80
2022/12/03 10:51:21;;;;;;;56.90;33.13;;;3.80;81.20;;;;;;4974181;28;20140;-77
2022/12/03 10:53:48;;;;;;;51.63;32.58;;;3.80;81.70;;;;;;4964157;28;20083;-77
2022/12/03 10:56:23;;;;;;;52.88;32.00;;;3.80;81.50;;;;;;4966793;28;20117;-76
2022/12/03 10:58:50;;;;;;;53.47;33.97;;;3.80;81.30;;;;;;4965138;28;20058;-78
2022/12/03 11:01:22;;;;;;;54.05;32.58;;;3.80;81.20;;;;;;4964912;28;21185;-75
2022/12/03 11:03:49;;;;;;;51.72;32.20;;;3.70;81.40;;;;;;4970472;28;20360;-76
2022/12/03 11:06:20;;;;;;;49.30;31.48;;;3.70;81.80;;;;;;4965484;28;20406;-75
2022/12/03 11:08:49;;;;;;;53.67;32.10;;;3.80;81.60;;;;;;4965663;28;20084;-76
2022/12/03 11:11:22;;;;;;;53.38;31.92;;;3.80;81.70;;;;;;4968385;28;20459;-76
2022/12/03 11:13:54;;;;;;;57.88;34.70;;;3.90;81.40;;;;;;4966399;28;20379;-75
2022/12/03 11:16:38;;;;;;;59.35;35.20;;;3.80;81.30;;;;;;4967088;28;20027;-76
2022/12/03 11:19:23;;;;;;;54.85;33.80;;;3.80;81.70;;;;;;4961762;28;20216;-76
2022/12/03 11:22:03;;;;;;;60.75;35.40;;;3.90;81.40;;;;;;4964077;28;20078;-74
2022/12/03 11:24:31;;;;;;;55.78;33.33;;;3.90;81.40;;;;;;4966893;28;20034;-76
2022/12/03 11:26:57;;;;;;;51.65;31.73;;;3.90;81.50;;;;;;4963969;28;20026;-75
2022/12/03 11:29:49;;;;;;;53.38;33.80;;;3.80;81.60;;;;;;4962698;28;20085;-76
2022/12/03 11:32:36;;;;;;;52.28;30.95;;;3.70;82.10;;;;;;4963498;28;20546;-77
2022/12/03 11:35:03;;;;;;;51.00;32.63;;;3.60;81.90;;;;;;4963710;28;20630;-79
2022/12/03 11:37:28;;;;;;;49.30;32.78;;;3.60;81.60;;;;;;4960565;28;20034;-82
2022/12/03 11:39:54;;;;;;;52.47;34.47;;;3.60;81.70;;;;;;4966756;28;20047;-78
2022/12/03 11:42:25;;;;;;;50.30;32.78;;;3.70;81.60;;;;;;4962758;28;20470;-73
2022/12/03 11:45:09;;;;;;;53.25;32.33;;;3.70;81.40;;;;;;4976658;28;20034;-73
2022/12/03 11:47:44;;;;;;;56.38;34.92;;;3.80;81.70;;;;;;4976362;28;20375;-73
2022/12/03 11:50:37;;;;;;;57.13;36.63;;;3.80;81.60;;;;;;4958188;28;20046;-74
2022/12/03 11:53:20;;;;;;;56.33;34.65;;;3.60;82.10;;;;;;4960830;28;20093;-76
2022/12/03 11:55:52;;;;;;;57.50;36.05;;;3.60;82.30;;;;;;4958823;28;20045;-76
2022/12/03 11:58:28;;;;;;;59.17;35.13;;;3.60;82.40;;;;;;4961229;28;20578;-77
2022/12/03 12:00:59;;;;;;;53.58;35.20;;;3.60;82.30;;;;;;4966188;28;20046;-75
2022/12/03 12:03:40;;;;;;;55.92;36.20;;;3.70;82.10;;;;;;4957529;28;20034;-77
2022/12/03 12:06:25;;;;;;;56.33;35.13;;;3.60;82.00;;;;;;4970643;28;20041;-77
2022/12/03 12:08:51;;;;;;;;;;;3.50;82.20;;;;;;4965008;28;20054;-76
2022/12/03 12:11:29;;;;;;;57.85;34.65;;;3.60;82.40;;;;;;4961290;28;20014;-75
2022/12/03 12:13:57;;;;;;;60.88;35.45;;;3.70;82.40;;;;;;4961421;28;20428;-77
2022/12/03 12:16:49;;;;;;;56.25;35.67;;;3.70;81.90;;;;;;4963590;28;20031;-76
2022/12/03 12:19:39;;;;;;;57.38;35.97;;;3.70;81.70;;;;;;4958714;28;20142;-75
2022/12/03 12:22:26;;;;;;;54.92;34.22;;;3.60;82.10;;;;;;4961297;28;20535;-76
2022/12/03 12:24:54;;;;;;;55.65;35.25;;;3.60;81.70;;;;;;4957516;28;20039;-76
2022/12/03 12:27:38;;;;;;;52.00;32.45;;;3.60;82.20;;;;;;4955419;28;20066;-76
2022/12/03 12:30:18;;;;;;;55.35;34.25;;;3.70;82.00;;;;;;4964671;28;20049;-76
2022/12/03 12:32:56;;;;;;;54.88;33.72;;;3.90;81.80;;;;;;4946243;28;20480;-76
2022/12/03 12:35:31;;;;;;;55.47;33.22;;;3.90;81.20;;;;;;4967594;28;20089;-77
2022/12/03 12:38:10;;;;;;;53.63;34.85;;;3.90;81.10;;;;;;4965234;28;20113;-76
2022/12/03 12:40:40;;;;;;;52.28;33.25;;;4.00;81.00;;;;;;4972127;28;20637;-76
2022/12/03 12:43:29;;;;;;;50.88;32.45;;;4.10;80.90;;;;;;4964706;28;20068;-79
2022/12/03 12:45:59;;;;;;;49.33;31.65;;;4.10;80.60;;;;;;4966739;28;20122;-78
2022/12/03 12:48:27;;;;;;;50.97;33.15;;;4.10;79.80;;;;;;4958498;28;20498;-75
2022/12/03 12:51:17;;;;;;;48.63;30.40;;;4.10;79.60;;;;;;4965452;28;20070;-76
2022/12/03 12:53:43;;;;;;;51.63;32.20;;;4.10;79.60;;;;;;4963484;28;20547;-77
2022/12/03 12:56:30;;;;;;;50.30;33.35;;;4.10;79.70;;;;;;4965420;28;20348;-77
2022/12/03 12:59:01;;;;;;;54.10;33.60;;;4.10;79.70;;;;;;4960262;28;20038;-77
2022/12/03 13:01:30;;;;;;;48.97;31.50;;;4.10;80.10;;;;;;4961639;28;20035;-77
2022/12/03 13:03:56;;;;;;;50.83;32.63;;;4.10;80.10;;;;;;4956403;28;20065;-78
2022/12/03 13:06:27;;;;;;;50.88;33.05;;;4.10;79.70;;;;;;4961426;28;20034;-77
2022/12/03 13:08:53;;;;;;;51.85;33.67;;;4.10;79.60;;;;;;4958055;28;20113;-77
2022/12/03 13:11:40;;;;;;;51.85;33.60;;;4.10;79.60;;;;;;4970678;28;20043;-76